This is the latest recevied weather packets stored in our database for station/object OK1PMP-6. If no packets are shown the sender has not sent any weather packets the latest 10 day(s).
| Time | Temp. | Humidity | Pressure | Rain* | Wind** | Luminosity | Snow |
|---|---|---|---|---|---|---|---|
| 1777959880 | 15.56° C | 77% | 1012.4 hPa | 0 mm | - | 208 W/m² | - |
| 1777958972 | 14.44° C | 78% | 1012.3 hPa | 0 mm | - | 206 W/m² | - |
| 1777958071 | 12.78° C | 83% | 1012.3 hPa | 0 mm | - | 117 W/m² | - |
| 1777957169 | 12.78° C | 82% | 1012.2 hPa | 0 mm | - | 54 W/m² | - |
| 1777956267 | 12.78° C | 83% | 1012 hPa | 0 mm | - | 33 W/m² | - |
| 1777955366 | 12.22° C | 84% | 1012.4 hPa | 0 mm | - | 26 W/m² | - |
| 1777954452 | 12.22° C | 82% | 1012.4 hPa | 0 mm | - | 18 W/m² | - |
| 1777953555 | 12.78° C | 80% | 1012.2 hPa | 0 mm | - | 10 W/m² | - |
| 1777952646 | 13.33° C | 80% | 1011.9 hPa | 0 mm | - | 4 W/m² | - |
| 1777951746 | 13.33° C | 80% | 1011.8 hPa | 0 mm | - | 2 W/m² | - |
| 1777950852 | 13.33° C | 82% | 1012 hPa | 0 mm | - | 0 W/m² | - |
| 1777949943 | 13.33° C | 82% | 1012.4 hPa | 0 mm | - | 0 W/m² | - |
| 1777949044 | 13.33° C | 84% | 1012.4 hPa | 0 mm | - | 0 W/m² | - |
| 1777948145 | 13.33° C | 83% | 1012.2 hPa | 0 mm | - | 0 W/m² | - |
| 1777947244 | 13.33° C | 84% | 1012.3 hPa | 0 mm | - | 0 W/m² | - |
| 1777946344 | 13.33° C | 84% | 1012.1 hPa | 0 mm | - | 0 W/m² | - |
| 1777945443 | 13.33° C | 85% | 1012.7 hPa | 0 mm | - | 0 W/m² | - |
| 1777944544 | 13.33° C | 84% | 1013.2 hPa | 0.25 mm | - | 0 W/m² | - |
| 1777943644 | 13.33° C | 85% | 1013.6 hPa | 0.25 mm | - | 0 W/m² | - |
| 1777942744 | 13.33° C | 82% | 1013.7 hPa | 0.25 mm | - | 0 W/m² | - |
| 1777941844 | 13.33° C | 83% | 1013.2 hPa | 0.25 mm | - | 0 W/m² | - |
| 1777940944 | 13.89° C | 79% | 1014.6 hPa | 0 mm | - | 0 W/m² | - |
| 1777940044 | 13.89° C | 79% | 1014.5 hPa | 0 mm | - | 0 W/m² | - |
| 1777939146 | 13.89° C | 78% | 1014.6 hPa | 0 mm | - | 0 W/m² | - |
| 1777938245 | 14.44° C | 76% | 1014.8 hPa | 0 mm | - | 0 W/m² | - |
* Rain latest hour (hover to see other rain measurements)
** Current wind speed in m/s (hover to see current wind gust speed)